sensor_id;sensor_type;location;lat;lon;timestamp;pressure;altitude;pressure_sealevel;temperature;humidity
63204;BME280;49297;43.210;27.914;2023-12-20T00:00:17;101579.06;;;4.91;79.76
63204;BME280;49297;43.210;27.914;2023-12-20T00:02:42;101581.91;;;4.86;79.42
63204;BME280;49297;43.210;27.914;2023-12-20T00:05:12;101578.59;;;4.83;79.74
63204;BME280;49297;43.210;27.914;2023-12-20T00:07:38;101575.22;;;4.81;79.67
63204;BME280;49297;43.210;27.914;2023-12-20T00:10:04;101566.72;;;4.75;79.13
63204;BME280;49297;43.210;27.914;2023-12-20T00:12:29;101572.31;;;4.69;79.07
63204;BME280;49297;43.210;27.914;2023-12-20T00:14:55;101564.97;;;4.58;78.78
63204;BME280;49297;43.210;27.914;2023-12-20T00:17:24;101558.28;;;4.53;79.02
63204;BME280;49297;43.210;27.914;2023-12-20T00:19:49;101563.81;;;4.47;79.05
63204;BME280;49297;43.210;27.914;2023-12-20T00:22:16;101559.75;;;4.41;78.67
63204;BME280;49297;43.210;27.914;2023-12-20T00:24:41;101559.81;;;4.39;79.22
63204;BME280;49297;43.210;27.914;2023-12-20T00:29:39;101563.44;;;4.37;79.34
63204;BME280;49297;43.210;27.914;2023-12-20T00:32:05;101548.00;;;4.31;79.22
63204;BME280;49297;43.210;27.914;2023-12-20T00:34:31;101543.16;;;4.23;79.29
63204;BME280;49297;43.210;27.914;2023-12-20T00:36:56;101542.47;;;4.19;79.80
63204;BME280;49297;43.210;27.914;2023-12-20T00:39:22;101539.00;;;4.19;79.78
63204;BME280;49297;43.210;27.914;2023-12-20T00:41:47;101532.81;;;4.20;80.09
63204;BME280;49297;43.210;27.914;2023-12-20T00:44:13;101534.53;;;4.21;80.10
63204;BME280;49297;43.210;27.914;2023-12-20T00:46:38;101531.13;;;4.19;80.24
63204;BME280;49297;43.210;27.914;2023-12-20T00:49:04;101535.38;;;4.22;80.43
63204;BME280;49297;43.210;27.914;2023-12-20T00:51:30;101533.50;;;4.24;80.50
63204;BME280;49297;43.210;27.914;2023-12-20T00:53:55;101530.75;;;4.27;80.95
63204;BME280;49297;43.210;27.914;2023-12-20T00:56:21;101534.81;;;4.32;81.30
63204;BME280;49297;43.210;27.914;2023-12-20T00:58:47;101527.72;;;4.34;81.18
63204;BME280;49297;43.210;27.914;2023-12-20T01:01:12;101518.00;;;4.36;81.23
63204;BME280;49297;43.210;27.914;2023-12-20T01:03:38;101518.56;;;4.43;80.98
63204;BME280;49297;43.210;27.914;2023-12-20T01:06:04;101516.69;;;4.45;80.80
63204;BME280;49297;43.210;27.914;2023-12-20T01:08:30;101516.63;;;4.47;81.05
63204;BME280;49297;43.210;27.914;2023-12-20T01:10:56;101513.00;;;4.49;81.19
63204;BME280;49297;43.210;27.914;2023-12-20T01:13:24;101513.00;;;4.49;80.60
63204;BME280;49297;43.210;27.914;2023-12-20T01:15:50;101507.66;;;4.51;80.85
63204;BME280;49297;43.210;27.914;2023-12-20T01:18:16;101506.75;;;4.52;80.62
63204;BME280;49297;43.210;27.914;2023-12-20T01:20:41;101503.28;;;4.51;80.56
63204;BME280;49297;43.210;27.914;2023-12-20T01:23:08;101497.78;;;4.56;80.09
63204;BME280;49297;43.210;27.914;2023-12-20T01:25:33;101488.16;;;4.56;80.06
63204;BME280;49297;43.210;27.914;2023-12-20T01:27:59;101488.16;;;4.56;80.23
63204;BME280;49297;43.210;27.914;2023-12-20T01:30:24;101502.19;;;4.55;80.15
63204;BME280;49297;43.210;27.914;2023-12-20T01:32:50;101494.41;;;4.54;80.02
63204;BME280;49297;43.210;27.914;2023-12-20T01:35:15;101482.03;;;4.56;80.17
63204;BME280;49297;43.210;27.914;2023-12-20T01:37:41;101477.66;;;4.56;80.15
63204;BME280;49297;43.210;27.914;2023-12-20T01:40:06;101480.28;;;4.56;79.97
63204;BME280;49297;43.210;27.914;2023-12-20T01:42:33;101467.06;;;4.58;79.99
63204;BME280;49297;43.210;27.914;2023-12-20T01:44:58;101463.59;;;4.57;80.29
63204;BME280;49297;43.210;27.914;2023-12-20T01:47:24;101460.22;;;4.55;79.96
63204;BME280;49297;43.210;27.914;2023-12-20T01:49:49;101455.88;;;4.54;79.96
63204;BME280;49297;43.210;27.914;2023-12-20T01:52:16;101441.25;;;4.50;80.00
63204;BME280;49297;43.210;27.914;2023-12-20T01:54:42;101437.88;;;4.48;79.91
63204;BME280;49297;43.210;27.914;2023-12-20T01:57:08;101433.53;;;4.47;80.40
63204;BME280;49297;43.210;27.914;2023-12-20T01:59:34;101425.09;;;4.42;80.51
63204;BME280;49297;43.210;27.914;2023-12-20T02:02:02;101426.00;;;4.41;80.68
63204;BME280;49297;43.210;27.914;2023-12-20T02:04:28;101425.16;;;4.41;80.80
63204;BME280;49297;43.210;27.914;2023-12-20T02:06:54;101417.31;;;4.41;80.21
63204;BME280;49297;43.210;27.914;2023-12-20T02:09:22;101418.38;;;4.36;80.38
63204;BME280;49297;43.210;27.914;2023-12-20T02:11:48;101417.69;;;4.33;80.24
63204;BME280;49297;43.210;27.914;2023-12-20T02:14:13;101408.16;;;4.32;80.23
63204;BME280;49297;43.210;27.914;2023-12-20T02:16:39;101407.28;;;4.31;80.51
63204;BME280;49297;43.210;27.914;2023-12-20T02:19:05;101393.31;;;4.31;80.58
63204;BME280;49297;43.210;27.914;2023-12-20T02:21:35;101396.09;;;4.28;80.54
63204;BME280;49297;43.210;27.914;2023-12-20T02:24:01;101390.09;;;4.26;80.02
63204;BME280;49297;43.210;27.914;2023-12-20T02:26:27;101385.94;;;4.22;80.21
63204;BME280;49297;43.210;27.914;2023-12-20T02:28:52;101389.34;;;4.24;80.17
63204;BME280;49297;43.210;27.914;2023-12-20T02:31:20;101377.25;;;4.21;80.04
63204;BME280;49297;43.210;27.914;2023-12-20T02:33:46;101369.63;;;4.16;80.16
63204;BME280;49297;43.210;27.914;2023-12-20T02:36:12;101376.50;;;4.19;80.41
63204;BME280;49297;43.210;27.914;2023-12-20T02:38:37;101363.38;;;4.19;80.45
63204;BME280;49297;43.210;27.914;2023-12-20T02:41:03;101367.53;;;4.23;80.67
63204;BME280;49297;43.210;27.914;2023-12-20T02:43:28;101365.75;;;4.24;80.42
63204;BME280;49297;43.210;27.914;2023-12-20T02:45:54;101366.69;;;4.23;80.47
63204;BME280;49297;43.210;27.914;2023-12-20T02:48:19;101357.13;;;4.22;80.93
63204;BME280;49297;43.210;27.914;2023-12-20T02:50:46;101363.19;;;4.22;80.18
63204;BME280;49297;43.210;27.914;2023-12-20T02:53:14;101365.75;;;4.24;80.98
63204;BME280;49297;43.210;27.914;2023-12-20T02:55:40;101359.75;;;4.22;80.47
63204;BME280;49297;43.210;27.914;2023-12-20T02:58:05;101368.44;;;4.22;80.17
63204;BME280;49297;43.210;27.914;2023-12-20T03:00:31;101359.66;;;4.23;80.57
63204;BME280;49297;43.210;27.914;2023-12-20T03:02:57;101357.03;;;4.23;79.94
63204;BME280;49297;43.210;27.914;2023-12-20T03:05:25;101364.06;;;4.23;80.33
63204;BME280;49297;43.210;27.914;2023-12-20T03:07:51;101359.66;;;4.23;79.92
63204;BME280;49297;43.210;27.914;2023-12-20T03:10:17;101359.50;;;4.26;80.17
63204;BME280;49297;43.210;27.914;2023-12-20T03:12:43;101360.28;;;4.28;79.58
63204;BME280;49297;43.210;27.914;2023-12-20T03:15:09;101348.84;;;4.29;79.82
63204;BME280;49297;43.210;27.914;2023-12-20T03:17:35;101356.63;;;4.31;79.83
63204;BME280;49297;43.210;27.914;2023-12-20T03:20:01;101354.84;;;4.31;79.82
63204;BME280;49297;43.210;27.914;2023-12-20T03:22:28;101357.47;;;4.31;79.77
63204;BME280;49297;43.210;27.914;2023-12-20T03:24:53;101354.06;;;4.29;79.60
63204;BME280;49297;43.210;27.914;2023-12-20T03:27:19;101355.03;;;4.28;79.70
63204;BME280;49297;43.210;27.914;2023-12-20T03:29:44;101355.09;;;4.27;79.38
63204;BME280;49297;43.210;27.914;2023-12-20T03:32:10;101354.16;;;4.28;79.32
63204;BME280;49297;43.210;27.914;2023-12-20T03:34:35;101354.16;;;4.28;79.35
63204;BME280;49297;43.210;27.914;2023-12-20T03:37:01;101345.53;;;4.26;79.66
63204;BME280;49297;43.210;27.914;2023-12-20T03:39:26;101343.84;;;4.25;79.38
63204;BME280;49297;43.210;27.914;2023-12-20T03:41:52;101343.00;;;4.24;79.36
63204;BME280;49297;43.210;27.914;2023-12-20T03:44:17;101343.84;;;4.25;79.39
63204;BME280;49297;43.210;27.914;2023-12-20T03:46:43;101337.66;;;4.26;79.22
63204;BME280;49297;43.210;27.914;2023-12-20T03:49:08;101341.38;;;4.22;79.38
63204;BME280;49297;43.210;27.914;2023-12-20T03:51:34;101341.47;;;4.20;79.40
63204;BME280;49297;43.210;27.914;2023-12-20T03:53:59;101343.31;;;4.18;79.63
63204;BME280;49297;43.210;27.914;2023-12-20T03:56:26;101338.09;;;4.18;78.92
63204;BME280;49297;43.210;27.914;2023-12-20T03:58:51;101340.84;;;4.15;78.95
63204;BME280;49297;43.210;27.914;2023-12-20T04:01:17;101342.72;;;4.13;78.99
63204;BME280;49297;43.210;27.914;2023-12-20T04:03:42;101332.22;;;4.13;79.04
63204;BME280;49297;43.210;27.914;2023-12-20T04:06:23;101330.97;;;4.20;79.16
63204;BME280;49297;43.210;27.914;2023-12-20T04:08:48;101327.59;;;4.18;78.86
63204;BME280;49297;43.210;27.914;2023-12-20T04:11:14;101329.53;;;4.14;78.82
63204;BME280;49297;43.210;27.914;2023-12-20T04:13:39;101320.84;;;4.14;78.85
63204;BME280;49297;43.210;27.914;2023-12-20T04:16:05;101306.88;;;4.13;79.17
63204;BME280;49297;43.210;27.914;2023-12-20T04:18:31;101304.44;;;4.10;79.02
63204;BME280;49297;43.210;27.914;2023-12-20T04:20:57;101306.19;;;4.10;78.85
63204;BME280;49297;43.210;27.914;2023-12-20T04:23:22;101310.50;;;4.11;78.72
63204;BME280;49297;43.210;27.914;2023-12-20T04:25:48;101305.25;;;4.11;79.17
63204;BME280;49297;43.210;27.914;2023-12-20T04:28:13;101308.72;;;4.11;78.83
63204;BME280;49297;43.210;27.914;2023-12-20T04:30:39;101305.34;;;4.09;78.83
63204;BME280;49297;43.210;27.914;2023-12-20T04:33:04;101301.97;;;4.07;79.24
63204;BME280;49297;43.210;27.914;2023-12-20T04:35:30;101309.06;;;4.05;78.99
63204;BME280;49297;43.210;27.914;2023-12-20T04:37:55;101306.59;;;4.02;79.26
63204;BME280;49297;43.210;27.914;2023-12-20T04:40:21;101302.44;;;3.98;78.78
63204;BME280;49297;43.210;27.914;2023-12-20T04:42:46;101288.28;;;3.85;78.20
63204;BME280;49297;43.210;27.914;2023-12-20T04:45:12;101300.28;;;3.73;78.29
63204;BME280;49297;43.210;27.914;2023-12-20T04:47:38;101298.78;;;3.67;78.21
63204;BME280;49297;43.210;27.914;2023-12-20T04:50:04;101302.34;;;3.66;78.86
63204;BME280;49297;43.210;27.914;2023-12-20T04:52:30;101300.81;;;3.62;78.62
63204;BME280;49297;43.210;27.914;2023-12-20T04:54:56;101294.91;;;3.58;78.82
63204;BME280;49297;43.210;27.914;2023-12-20T04:57:22;101295.19;;;3.52;79.17
63204;BME280;49297;43.210;27.914;2023-12-20T04:59:48;101293.03;;;3.43;79.21
63204;BME280;49297;43.210;27.914;2023-12-20T05:02:13;101295.19;;;3.35;79.13
63204;BME280;49297;43.210;27.914;2023-12-20T05:04:38;101296.13;;;3.34;79.77
63204;BME280;49297;43.210;27.914;2023-12-20T05:07:04;101288.97;;;3.37;79.68
63204;BME280;49297;43.210;27.914;2023-12-20T05:09:30;101280.25;;;3.37;79.61
63204;BME280;49297;43.210;27.914;2023-12-20T05:11:55;101287.19;;;3.38;80.02
63204;BME280;49297;43.210;27.914;2023-12-20T05:14:21;101287.13;;;3.39;80.65
63204;BME280;49297;43.210;27.914;2023-12-20T05:16:46;101284.34;;;3.42;79.91
63204;BME280;49297;43.210;27.914;2023-12-20T05:19:12;101283.34;;;3.45;80.59
63204;BME280;49297;43.210;27.914;2023-12-20T05:21:37;101282.44;;;3.46;80.62
63204;BME280;49297;43.210;27.914;2023-12-20T05:24:03;101275.41;;;3.47;80.47
63204;BME280;49297;43.210;27.914;2023-12-20T05:26:29;101290.22;;;3.48;79.74
63204;BME280;49297;43.210;27.914;2023-12-20T05:28:55;101284.88;;;3.49;79.75
63204;BME280;49297;43.210;27.914;2023-12-20T05:31:21;101287.41;;;3.51;80.10
63204;BME280;49297;43.210;27.914;2023-12-20T05:33:49;101277.88;;;3.50;79.39
63204;BME280;49297;43.210;27.914;2023-12-20T05:36:15;101277.88;;;3.50;79.72
63204;BME280;49297;43.210;27.914;2023-12-20T05:38:40;101283.13;;;3.50;79.86
63204;BME280;49297;43.210;27.914;2023-12-20T05:41:06;101283.13;;;3.50;79.62
63204;BME280;49297;43.210;27.914;2023-12-20T05:43:31;101273.56;;;3.49;79.75
63204;BME280;49297;43.210;27.914;2023-12-20T05:45:58;101275.25;;;3.50;79.83
63204;BME280;49297;43.210;27.914;2023-12-20T05:48:23;101281.19;;;3.53;79.25
63204;BME280;49297;43.210;27.914;2023-12-20T05:50:49;101278.56;;;3.53;79.33
63204;BME280;49297;43.210;27.914;2023-12-20T05:53:21;101277.63;;;3.54;79.14
63204;BME280;49297;43.210;27.914;2023-12-20T05:55:47;101275.94;;;3.53;79.26
63204;BME280;49297;43.210;27.914;2023-12-20T05:58:12;101276.72;;;3.55;79.32
63204;BME280;49297;43.210;27.914;2023-12-20T06:00:38;101277.41;;;3.59;79.78
63204;BME280;49297;43.210;27.914;2023-12-20T06:03:03;101272.09;;;3.60;79.26
63204;BME280;49297;43.210;27.914;2023-12-20T06:05:30;101271.91;;;3.63;79.72
63204;BME280;49297;43.210;27.914;2023-12-20T06:07:56;101272.59;;;3.67;79.73
63204;BME280;49297;43.210;27.914;2023-12-20T06:10:26;101285.38;;;3.73;79.89
63204;BME280;49297;43.210;27.914;2023-12-20T06:12:52;101286.84;;;3.79;79.81
63204;BME280;49297;43.210;27.914;2023-12-20T06:15:18;101282.13;;;3.86;79.36
63204;BME280;49297;43.210;27.914;2023-12-20T06:17:43;101266.16;;;3.90;79.52
63204;BME280;49297;43.210;27.914;2023-12-20T06:20:09;101264.13;;;3.95;79.53
63204;BME280;49297;43.210;27.914;2023-12-20T06:22:35;101274.31;;;4.02;79.29
63204;BME280;49297;43.210;27.914;2023-12-20T06:25:01;101282.69;;;4.08;79.37
63204;BME280;49297;43.210;27.914;2023-12-20T06:27:28;101276.00;;;4.18;79.27
63204;BME280;49297;43.210;27.914;2023-12-20T06:29:54;101280.88;;;4.26;79.05
63204;BME280;49297;43.210;27.914;2023-12-20T06:32:19;101277.91;;;4.32;79.34
63204;BME280;49297;43.210;27.914;2023-12-20T06:34:45;101279.34;;;4.38;78.88
63204;BME280;49297;43.210;27.914;2023-12-20T06:37:10;101277.22;;;4.45;78.62
63204;BME280;49297;43.210;27.914;2023-12-20T06:39:36;101278.94;;;4.46;78.44
63204;BME280;49297;43.210;27.914;2023-12-20T06:42:01;101282.41;;;4.46;78.20
63204;BME280;49297;43.210;27.914;2023-12-20T06:44:27;101272.75;;;4.47;78.18
63204;BME280;49297;43.210;27.914;2023-12-20T06:46:55;101270.03;;;4.48;78.09
63204;BME280;49297;43.210;27.914;2023-12-20T06:49:21;101270.56;;;4.55;78.06
63204;BME280;49297;43.210;27.914;2023-12-20T06:51:46;101268.31;;;4.63;78.52
63204;BME280;49297;43.210;27.914;2023-12-20T06:54:12;101262.69;;;4.71;78.08
63204;BME280;49297;43.210;27.914;2023-12-20T06:56:38;101264.03;;;4.78;78.23
63204;BME280;49297;43.210;27.914;2023-12-20T06:59:04;101251.38;;;4.85;77.94
63204;BME280;49297;43.210;27.914;2023-12-20T07:01:29;101243.16;;;4.91;78.10
63204;BME280;49297;43.210;27.914;2023-12-20T07:03:55;101247.13;;;4.98;78.01
63204;BME280;49297;43.210;27.914;2023-12-20T07:06:21;101245.75;;;5.07;78.08
63204;BME280;49297;43.210;27.914;2023-12-20T07:08:46;101236.59;;;5.14;77.77
63204;BME280;49297;43.210;27.914;2023-12-20T07:11:12;101237.06;;;5.21;77.68
63204;BME280;49297;43.210;27.914;2023-12-20T07:13:38;101234.00;;;5.28;77.90
63204;BME280;49297;43.210;27.914;2023-12-20T07:16:04;101235.22;;;5.37;77.89
63204;BME280;49297;43.210;27.914;2023-12-20T07:18:30;101243.47;;;5.45;77.71
63204;BME280;49297;43.210;27.914;2023-12-20T07:20:55;101233.28;;;5.55;77.65
63204;BME280;49297;43.210;27.914;2023-12-20T07:23:23;101230.00;;;5.66;77.50
63204;BME280;49297;43.210;27.914;2023-12-20T07:25:51;101228.59;;;5.75;77.77
63204;BME280;49297;43.210;27.914;2023-12-20T07:28:16;101227.19;;;5.83;77.52
63204;BME280;49297;43.210;27.914;2023-12-20T07:30:42;101223.16;;;5.92;77.22
63204;BME280;49297;43.210;27.914;2023-12-20T07:33:08;101218.19;;;6.02;76.86
63204;BME280;49297;43.210;27.914;2023-12-20T07:35:34;101215.84;;;6.12;76.64
63204;BME280;49297;43.210;27.914;2023-12-20T07:38:00;101211.78;;;6.20;76.59
63204;BME280;49297;43.210;27.914;2023-12-20T07:40:28;101197.97;;;6.31;76.53
63204;BME280;49297;43.210;27.914;2023-12-20T07:42:53;101202.53;;;6.42;76.34
63204;BME280;49297;43.210;27.914;2023-12-20T07:45:19;101203.59;;;6.52;76.14
63204;BME280;49297;43.210;27.914;2023-12-20T07:47:44;101196.72;;;6.64;76.43
63204;BME280;49297;43.210;27.914;2023-12-20T07:50:10;101206.53;;;6.75;76.08
63204;BME280;49297;43.210;27.914;2023-12-20T07:52:35;101205.63;;;6.89;76.76
63204;BME280;49297;43.210;27.914;2023-12-20T07:55:01;101200.47;;;7.00;76.29
63204;BME280;49297;43.210;27.914;2023-12-20T07:57:30;101200.50;;;7.13;76.35
63204;BME280;49297;43.210;27.914;2023-12-20T07:59:56;101192.81;;;7.22;76.83
63204;BME280;49297;43.210;27.914;2023-12-20T08:02:21;101188.50;;;7.34;75.81
63204;BME280;49297;43.210;27.914;2023-12-20T08:04:47;101186.81;;;7.46;76.42
63204;BME280;49297;43.210;27.914;2023-12-20T08:07:13;101179.97;;;7.56;76.52
63204;BME280;49297;43.210;27.914;2023-12-20T08:09:38;101179.22;;;7.67;75.78
63204;BME280;49297;43.210;27.914;2023-12-20T08:12:04;101172.25;;;7.79;76.21
63204;BME280;49297;43.210;27.914;2023-12-20T08:14:30;101170.63;;;7.89;75.44
63204;BME280;49297;43.210;27.914;2023-12-20T08:16:56;101167.34;;;7.98;75.62
63204;BME280;49297;43.210;27.914;2023-12-20T08:19:22;101161.06;;;8.12;75.91
63204;BME280;49297;43.210;27.914;2023-12-20T08:21:50;101166.19;;;8.27;75.14
63204;BME280;49297;43.210;27.914;2023-12-20T08:24:16;101160.00;;;8.39;74.71
63204;BME280;49297;43.210;27.914;2023-12-20T08:26:42;101154.69;;;8.52;74.20
63204;BME280;49297;43.210;27.914;2023-12-20T08:29:07;101139.75;;;8.64;73.69
63204;BME280;49297;43.210;27.914;2023-12-20T08:31:34;101137.41;;;8.72;72.88
63204;BME280;49297;43.210;27.914;2023-12-20T08:33:59;101134.28;;;8.78;72.53
63204;BME280;49297;43.210;27.914;2023-12-20T08:36:25;101132.97;;;8.84;72.71
63204;BME280;49297;43.210;27.914;2023-12-20T08:38:50;101125.44;;;8.90;72.20
63204;BME280;49297;43.210;27.914;2023-12-20T08:41:16;101127.59;;;8.96;72.59
63204;BME280;49297;43.210;27.914;2023-12-20T08:43:42;101113.09;;;9.02;71.51
63204;BME280;49297;43.210;27.914;2023-12-20T08:46:08;101109.16;;;9.08;72.04
63204;BME280;49297;43.210;27.914;2023-12-20T08:48:37;101104.34;;;9.13;71.62
63204;BME280;49297;43.210;27.914;2023-12-20T08:51:03;101103.16;;;9.17;71.47
63204;BME280;49297;43.210;27.914;2023-12-20T08:53:28;101101.00;;;9.22;71.78
63204;BME280;49297;43.210;27.914;2023-12-20T08:55:54;101086.56;;;9.26;71.18
63204;BME280;49297;43.210;27.914;2023-12-20T08:58:20;101089.69;;;9.31;71.21
63204;BME280;49297;43.210;27.914;2023-12-20T09:00:45;101087.78;;;9.33;70.86
63204;BME280;49297;43.210;27.914;2023-12-20T09:03:11;101080.44;;;9.37;71.10
63204;BME280;49297;43.210;27.914;2023-12-20T09:05:36;101082.84;;;9.40;70.50
63204;BME280;49297;43.210;27.914;2023-12-20T09:08:02;101073.84;;;9.43;70.12
63204;BME280;49297;43.210;27.914;2023-12-20T09:10:28;101069.16;;;9.46;70.41
63204;BME280;49297;43.210;27.914;2023-12-20T09:12:53;101068.91;;;9.49;69.97
63204;BME280;49297;43.210;27.914;2023-12-20T09:15:28;101050.88;;;9.55;70.35
63204;BME280;49297;43.210;27.914;2023-12-20T09:17:55;101048.00;;;9.58;69.68
63204;BME280;49297;43.210;27.914;2023-12-20T09:20:21;101043.44;;;9.60;69.53
63204;BME280;49297;43.210;27.914;2023-12-20T09:22:49;101037.03;;;9.62;69.53
63204;BME280;49297;43.210;27.914;2023-12-20T09:25:14;101026.22;;;9.65;70.05
63204;BME280;49297;43.210;27.914;2023-12-20T09:27:41;101034.63;;;9.70;69.40
63204;BME280;49297;43.210;27.914;2023-12-20T09:30:06;101031.47;;;9.77;69.37
63204;BME280;49297;43.210;27.914;2023-12-20T09:32:33;101024.00;;;9.82;69.14
63204;BME280;49297;43.210;27.914;2023-12-20T09:34:58;101012.34;;;9.84;69.18
63204;BME280;49297;43.210;27.914;2023-12-20T09:37:26;101005.84;;;9.88;69.01
63204;BME280;49297;43.210;27.914;2023-12-20T09:39:52;101008.13;;;9.93;68.39
63204;BME280;49297;43.210;27.914;2023-12-20T09:42:20;100999.66;;;9.99;68.14
63204;BME280;49297;43.210;27.914;2023-12-20T09:44:49;100987.72;;;10.05;68.12
63204;BME280;49297;43.210;27.914;2023-12-20T09:47:14;100990.25;;;10.06;68.23
63204;BME280;49297;43.210;27.914;2023-12-20T09:49:41;100985.69;;;10.08;68.07
63204;BME280;49297;43.210;27.914;2023-12-20T09:52:08;100983.47;;;10.14;67.90
63204;BME280;49297;43.210;27.914;2023-12-20T09:54:35;100974.47;;;10.16;67.39
63204;BME280;49297;43.210;27.914;2023-12-20T09:57:00;100969.31;;;10.15;67.40
63204;BME280;49297;43.210;27.914;2023-12-20T09:59:26;100956.06;;;10.15;66.33
63204;BME280;49297;43.210;27.914;2023-12-20T10:01:52;100953.03;;;10.19;66.26
63204;BME280;49297;43.210;27.914;2023-12-20T10:04:21;100943.75;;;10.25;66.24
63204;BME280;49297;43.210;27.914;2023-12-20T10:06:46;100953.94;;;10.29;65.94
63204;BME280;49297;43.210;27.914;2023-12-20T10:09:12;100950.31;;;10.31;65.90
63204;BME280;49297;43.210;27.914;2023-12-20T10:11:38;100948.16;;;10.36;65.68
63204;BME280;49297;43.210;27.914;2023-12-20T10:14:04;100945.38;;;10.37;65.55
63204;BME280;49297;43.210;27.914;2023-12-20T10:16:31;100948.88;;;10.38;65.41
63204;BME280;49297;43.210;27.914;2023-12-20T10:18:58;100951.78;;;10.35;65.74
63204;BME280;49297;43.210;27.914;2023-12-20T10:21:24;100942.00;;;10.35;65.56
63204;BME280;49297;43.210;27.914;2023-12-20T10:23:55;100941.75;;;10.38;65.85
63204;BME280;49297;43.210;27.914;2023-12-20T10:26:25;100940.53;;;10.42;65.74
63204;BME280;49297;43.210;27.914;2023-12-20T10:28:53;100943.44;;;10.39;65.52
63204;BME280;49297;43.210;27.914;2023-12-20T10:31:29;100925.75;;;10.40;65.75
63204;BME280;49297;43.210;27.914;2023-12-20T10:33:58;100920.34;;;10.41;66.59
63204;BME280;49297;43.210;27.914;2023-12-20T10:36:31;100919.47;;;10.41;66.79
63204;BME280;49297;43.210;27.914;2023-12-20T10:38:57;100917.41;;;10.44;66.77
63204;BME280;49297;43.210;27.914;2023-12-20T10:41:27;100913.53;;;10.48;67.23
63204;BME280;49297;43.210;27.914;2023-12-20T10:43:58;100907.13;;;10.51;67.46
63204;BME280;49297;43.210;27.914;2023-12-20T10:46:24;100908.69;;;10.54;67.76
63204;BME280;49297;43.210;27.914;2023-12-20T10:48:53;100906.63;;;10.57;67.52
63204;BME280;49297;43.210;27.914;2023-12-20T10:51:19;100890.72;;;10.57;67.96
63204;BME280;49297;43.210;27.914;2023-12-20T10:53:46;100887.28;;;10.66;67.93
63204;BME280;49297;43.210;27.914;2023-12-20T10:56:13;100876.00;;;10.74;67.57
63204;BME280;49297;43.210;27.914;2023-12-20T10:58:42;100883.13;;;10.83;67.39
63204;BME280;49297;43.210;27.914;2023-12-20T11:01:13;100882.34;;;10.93;66.42
63204;BME280;49297;43.210;27.914;2023-12-20T11:03:43;100878.31;;;10.98;66.19
63204;BME280;49297;43.210;27.914;2023-12-20T11:08:45;100866.31;;;11.14;64.64
63204;BME280;49297;43.210;27.914;2023-12-20T11:11:24;100863.69;;;11.23;64.08
63204;BME280;49297;43.210;27.914;2023-12-20T11:13:56;100861.03;;;11.33;63.91
63204;BME280;49297;43.210;27.914;2023-12-20T11:16:22;100851.41;;;11.42;63.65
63204;BME280;49297;43.210;27.914;2023-12-20T11:18:48;100844.16;;;11.44;63.35
63204;BME280;49297;43.210;27.914;2023-12-20T11:21:15;100843.88;;;11.47;63.13
63204;BME280;49297;43.210;27.914;2023-12-20T11:23:41;100838.19;;;11.52;63.16
63204;BME280;49297;43.210;27.914;2023-12-20T11:26:07;100835.53;;;11.52;63.24
63204;BME280;49297;43.210;27.914;2023-12-20T11:28:33;100838.88;;;11.54;63.28
63204;BME280;49297;43.210;27.914;2023-12-20T11:31:01;100840.53;;;11.55;63.67
63204;BME280;49297;43.210;27.914;2023-12-20T11:35:55;100832.75;;;11.53;64.52
63204;BME280;49297;43.210;27.914;2023-12-20T11:38:21;100833.84;;;11.51;64.88
63204;BME280;49297;43.210;27.914;2023-12-20T11:40:50;100832.59;;;11.45;65.86
63204;BME280;49297;43.210;27.914;2023-12-20T11:43:35;100829.13;;;11.45;66.20
63204;BME280;49297;43.210;27.914;2023-12-20T11:48:30;100814.88;;;11.36;67.55
63204;BME280;49297;43.210;27.914;2023-12-20T11:50:58;100807.75;;;11.36;67.75
63204;BME280;49297;43.210;27.914;2023-12-20T11:53:26;100808.44;;;11.38;67.70
63204;BME280;49297;43.210;27.914;2023-12-20T11:55:51;100802.31;;;11.38;67.65
63204;BME280;49297;43.210;27.914;2023-12-20T11:58:18;100795.06;;;11.40;67.93
63204;BME280;49297;43.210;27.914;2023-12-20T12:00:44;100783.19;;;11.44;67.90
63204;BME280;49297;43.210;27.914;2023-12-20T12:03:09;100786.38;;;11.48;67.53
63204;BME280;49297;43.210;27.914;2023-12-20T12:05:35;100787.53;;;11.45;67.54
63204;BME280;49297;43.210;27.914;2023-12-20T12:08:02;100780.97;;;11.39;67.70
63204;BME280;49297;43.210;27.914;2023-12-20T12:10:27;100765.47;;;11.35;67.57
63204;BME280;49297;43.210;27.914;2023-12-20T12:12:53;100774.69;;;11.31;67.41
63204;BME280;49297;43.210;27.914;2023-12-20T12:15:19;100767.28;;;11.24;67.50
63204;BME280;49297;43.210;27.914;2023-12-20T12:17:52;100771.34;;;11.19;67.41
63204;BME280;49297;43.210;27.914;2023-12-20T12:20:17;100766.34;;;11.06;68.53
63204;BME280;49297;43.210;27.914;2023-12-20T12:22:45;100761.06;;;10.96;68.48
63204;BME280;49297;43.210;27.914;2023-12-20T12:25:15;100756.28;;;10.90;68.66
63204;BME280;49297;43.210;27.914;2023-12-20T12:27:41;100754.91;;;10.86;69.01
63204;BME280;49297;43.210;27.914;2023-12-20T12:30:08;100759.78;;;10.81;68.98
63204;BME280;49297;43.210;27.914;2023-12-20T12:32:35;100739.00;;;10.76;69.21
63204;BME280;49297;43.210;27.914;2023-12-20T12:35:04;100742.75;;;10.74;69.40
63204;BME280;49297;43.210;27.914;2023-12-20T12:37:33;100746.66;;;10.70;70.07
63204;BME280;49297;43.210;27.914;2023-12-20T12:39:59;100732.88;;;10.66;70.54
63204;BME280;49297;43.210;27.914;2023-12-20T12:42:25;100735.78;;;10.63;70.65
63204;BME280;49297;43.210;27.914;2023-12-20T12:44:54;100737.88;;;10.59;70.48
63204;BME280;49297;43.210;27.914;2023-12-20T12:47:20;100731.31;;;10.54;71.27
63204;BME280;49297;43.210;27.914;2023-12-20T12:49:46;100714.16;;;10.48;71.48
63204;BME280;49297;43.210;27.914;2023-12-20T12:52:11;100712.63;;;10.45;71.32